Time;durP1;ratioP1;P1;durP2;ratioP2;P2;SDS_P1;SDS_P2;PMS_P1;PMS_P2;Temp;Humidity;BMP_temperature;BMP_pressure;BME280_temperature;BME280_humidity;BME280_pressure;Samples;Min_cycle;Max_cycle;Signal;HPM_P1;HPM_P2
2021/12/31 00:02:11;;;;;;;2.05;1.50;;;12.60;99.90;;;;;;5215596;28;20059;-34
2021/12/31 00:04:43;;;;;;;2.47;1.70;;;12.60;99.90;;;;;;5211667;28;20052;-34
2021/12/31 00:07:16;;;;;;;2.30;1.50;;;12.60;99.90;;;;;;5193218;28;20052;-34
2021/12/31 00:09:49;;;;;;;3.28;1.40;;;12.60;99.90;;;;;;5186351;28;20048;-34
2021/12/31 00:12:21;;;;;;;2.05;1.50;;;12.60;99.90;;;;;;5189506;28;20719;-34
2021/12/31 00:14:54;;;;;;;1.98;1.42;;;12.60;99.90;;;;;;5194530;28;21282;-34
2021/12/31 00:17:27;;;;;;;1.73;1.30;;;12.50;99.90;;;;;;5210480;28;20049;-34
2021/12/31 00:20:04;;;;;;;2.00;1.20;;;12.50;99.90;;;;;;5208377;28;20044;-34
2021/12/31 00:25:12;;;;;;;2.33;1.10;;;12.50;99.90;;;;;;5212587;28;20060;-34
2021/12/31 00:27:45;;;;;;;4.45;1.30;;;12.50;99.90;;;;;;5211592;28;20055;-34
2021/12/31 00:30:18;;;;;;;0.90;0.90;;;12.50;99.90;;;;;;5207275;28;20044;-34
2021/12/31 00:32:51;;;;;;;1.00;0.90;;;12.50;99.90;;;;;;5214695;28;20600;-34
2021/12/31 00:35:25;;;;;;;2.38;0.90;;;12.50;99.90;;;;;;5209857;28;20045;-34
2021/12/31 00:37:58;;;;;;;2.53;0.70;;;12.50;99.90;;;;;;5205377;28;20607;-34
2021/12/31 00:40:31;;;;;;;2.42;1.00;;;12.50;99.90;;;;;;5215593;28;20052;-34
2021/12/31 00:43:06;;;;;;;0.85;0.65;;;12.40;99.90;;;;;;5220204;28;20037;-34
2021/12/31 00:45:41;;;;;;;0.63;0.60;;;12.40;99.90;;;;;;5213698;28;20502;-34
2021/12/31 00:48:13;;;;;;;2.40;0.80;;;12.40;99.90;;;;;;5212592;28;20052;-34
2021/12/31 00:50:46;;;;;;;0.88;0.60;;;12.40;99.90;;;;;;5213628;28;20053;-34
2021/12/31 00:53:18;;;;;;;0.85;0.65;;;12.50;99.90;;;;;;5214376;28;20044;-34
2021/12/31 00:55:51;;;;;;;0.63;0.60;;;12.40;99.90;;;;;;5214403;28;20049;-34
2021/12/31 00:58:24;;;;;;;1.15;0.40;;;12.50;99.90;;;;;;5218804;28;20056;-34
2021/12/31 01:00:56;;;;;;;0.93;0.43;;;12.50;99.90;;;;;;5204986;28;20465;-34
2021/12/31 01:03:29;;;;;;;3.60;0.60;;;12.40;99.90;;;;;;5215640;28;20052;-34
2021/12/31 01:06:02;;;;;;;0.95;0.60;;;12.40;99.90;;;;;;5210847;28;20053;-34
2021/12/31 01:08:34;;;;;;;1.92;0.88;;;12.40;99.90;;;;;;5214026;28;20538;-34
2021/12/31 01:11:07;;;;;;;0.65;0.60;;;12.20;99.90;;;;;;5213909;28;20374;-34
2021/12/31 01:13:55;;;;;;;1.13;0.57;;;12.40;99.90;;;;;;5212946;28;20045;-34
2021/12/31 01:16:37;;;;;;;1.13;0.85;;;12.40;99.90;;;;;;5212118;28;20553;-34
2021/12/31 01:21:42;;;;;;;1.25;0.93;;;12.40;99.90;;;;;;5213037;28;20052;-34
2021/12/31 01:24:17;;;;;;;0.73;0.73;;;12.40;99.90;;;;;;5218203;28;20080;-34
2021/12/31 01:26:50;;;;;;;0.85;0.65;;;12.40;99.90;;;;;;5215496;28;20606;-34
2021/12/31 01:29:22;;;;;;;1.73;0.73;;;12.50;99.90;;;;;;5214801;28;20044;-34
2021/12/31 01:31:55;;;;;;;1.40;0.68;;;12.40;99.90;;;;;;5217058;28;20036;-34
2021/12/31 01:34:27;;;;;;;1.02;0.60;;;12.40;99.90;;;;;;5233932;28;20060;-34
2021/12/31 01:37:00;;;;;;;1.85;0.70;;;12.40;99.90;;;;;;5218976;28;20053;-34
2021/12/31 01:39:33;;;;;;;0.90;0.67;;;12.40;99.90;;;;;;5214428;28;20052;-34
2021/12/31 01:42:14;;;;;;;1.25;0.82;;;12.40;99.90;;;;;;5216835;28;20053;-34
2021/12/31 01:44:55;;;;;;;0.95;0.75;;;12.20;99.90;;;;;;5232504;28;20060;-34
2021/12/31 01:47:44;;;;;;;0.88;0.82;;;12.40;99.90;;;;;;5214615;28;20041;-34
2021/12/31 01:50:17;;;;;;;0.82;0.82;;;12.30;99.90;;;;;;5215911;28;20057;-34
2021/12/31 01:52:49;;;;;;;1.63;0.90;;;12.40;99.90;;;;;;5213159;28;20435;-34
2021/12/31 01:55:23;;;;;;;1.25;1.00;;;12.40;99.90;;;;;;5212659;28;20049;-34
2021/12/31 01:57:57;;;;;;;1.63;0.70;;;12.40;99.90;;;;;;5216265;28;20053;-34
2021/12/31 02:00:30;;;;;;;1.10;1.00;;;12.40;99.90;;;;;;5212427;28;20374;-34
2021/12/31 02:03:05;;;;;;;3.40;1.00;;;12.40;99.90;;;;;;5223175;28;20036;-34
2021/12/31 02:05:38;;;;;;;1.75;0.98;;;12.30;99.90;;;;;;5216050;28;20052;-34
2021/12/31 02:08:11;;;;;;;2.97;1.17;;;12.30;99.90;;;;;;5213921;28;20048;-34
2021/12/31 02:10:43;;;;;;;2.17;1.42;;;12.30;99.90;;;;;;5213291;28;20052;-34
2021/12/31 02:13:17;;;;;;;2.35;1.13;;;12.40;99.90;;;;;;5219870;28;20071;-34
2021/12/31 02:15:51;;;;;;;3.33;1.30;;;12.30;99.90;;;;;;5211455;28;20048;-34
2021/12/31 02:18:23;;;;;;;1.13;1.00;;;12.30;99.90;;;;;;5214905;28;20048;-34
2021/12/31 02:20:56;;;;;;;1.95;1.17;;;12.30;99.90;;;;;;5210891;28;20067;-34
2021/12/31 02:23:38;;;;;;;4.68;1.13;;;12.30;99.90;;;;;;5221140;28;20041;-34
2021/12/31 02:26:11;;;;;;;1.08;0.98;;;12.30;99.90;;;;;;5221569;28;20064;-34
2021/12/31 02:28:44;;;;;;;1.85;1.20;;;12.30;99.90;;;;;;5219554;28;20033;-34
2021/12/31 02:31:16;;;;;;;1.42;1.20;;;12.30;99.90;;;;;;5219159;28;20033;-34
2021/12/31 02:33:50;;;;;;;1.25;1.00;;;12.30;99.90;;;;;;5217628;28;20481;-34
2021/12/31 02:36:22;;;;;;;1.80;1.40;;;12.30;99.90;;;;;;5218947;28;20488;-34
2021/12/31 02:38:55;;;;;;;2.10;1.50;;;12.20;99.90;;;;;;5220214;28;20059;-34
2021/12/31 02:41:28;;;;;;;1.80;1.10;;;12.20;99.90;;;;;;5217279;28;20049;-34
2021/12/31 02:44:00;;;;;;;1.98;1.13;;;12.20;99.90;;;;;;5213699;28;20379;-34
2021/12/31 02:46:33;;;;;;;1.65;1.30;;;12.20;99.90;;;;;;5219163;28;20040;-34
2021/12/31 02:49:05;;;;;;;2.22;1.30;;;12.30;99.90;;;;;;5209085;28;20972;-34
2021/12/31 02:51:38;;;;;;;1.67;1.40;;;12.20;99.90;;;;;;5203053;28;20052;-34
2021/12/31 02:54:12;;;;;;;1.30;1.20;;;12.20;99.90;;;;;;5215006;28;20055;-34
2021/12/31 02:56:45;;;;;;;2.72;1.45;;;12.20;99.90;;;;;;5215944;28;20061;-34
2021/12/31 02:59:17;;;;;;;1.95;1.38;;;12.20;99.90;;;;;;5225593;28;20415;-34
2021/12/31 03:01:50;;;;;;;1.90;1.50;;;12.20;99.90;;;;;;5211426;28;20529;-34
2021/12/31 03:04:24;;;;;;;3.03;1.20;;;12.20;99.90;;;;;;5213554;28;20049;-34
2021/12/31 03:06:58;;;;;;;1.98;1.20;;;12.20;99.90;;;;;;5213836;28;20162;-34
2021/12/31 03:09:32;;;;;;;1.58;1.25;;;12.20;99.90;;;;;;5220976;28;20040;-34
2021/12/31 03:12:06;;;;;;;;;;;12.20;99.90;;;;;;5210195;28;20693;-35
2021/12/31 03:14:42;;;;;;;1.90;1.52;;;12.10;99.90;;;;;;5209298;28;19928;-34
2021/12/31 03:17:15;;;;;;;1.00;1.00;;;12.10;99.90;;;;;;5212709;28;20057;-34
2021/12/31 03:19:48;;;;;;;2.00;1.40;;;12.10;99.90;;;;;;5218668;28;20044;-34
2021/12/31 03:22:24;;;;;;;3.55;1.88;;;12.10;99.90;;;;;;5215672;28;20222;-34
2021/12/31 03:24:57;;;;;;;2.30;1.27;;;12.10;99.90;;;;;;5214677;28;20056;-34
2021/12/31 03:27:29;;;;;;;1.65;1.42;;;12.10;99.90;;;;;;5217278;28;20047;-34
2021/12/31 03:30:03;;;;;;;2.95;1.17;;;12.10;99.90;;;;;;5212523;28;20478;-34
2021/12/31 03:32:36;;;;;;;2.20;1.48;;;12.10;99.90;;;;;;5214531;28;20047;-34
2021/12/31 03:35:08;;;;;;;2.10;1.30;;;12.10;99.90;;;;;;5212683;28;20080;-34
2021/12/31 03:37:41;;;;;;;2.13;1.23;;;12.00;99.90;;;;;;5217043;28;20059;-34
2021/12/31 03:40:13;;;;;;;2.08;1.17;;;12.10;99.90;;;;;;5217980;28;20048;-34
2021/12/31 03:42:46;;;;;;;3.97;1.23;;;12.00;99.90;;;;;;5215538;28;20041;-34
2021/12/31 03:45:18;;;;;;;3.30;1.60;;;12.00;99.90;;;;;;5216323;28;20124;-34
2021/12/31 03:47:51;;;;;;;1.77;1.45;;;12.00;99.90;;;;;;5220763;28;20388;-34
2021/12/31 03:50:24;;;;;;;1.90;1.48;;;12.00;99.90;;;;;;5214779;28;20053;-34
2021/12/31 03:52:56;;;;;;;2.78;1.60;;;12.00;99.90;;;;;;5230367;28;20115;-34
2021/12/31 03:55:29;;;;;;;3.05;1.58;;;12.00;99.90;;;;;;5218095;28;20303;-34
2021/12/31 03:58:02;;;;;;;1.75;1.60;;;12.00;99.90;;;;;;5216989;28;20037;-34
2021/12/31 04:00:34;;;;;;;1.98;1.42;;;12.00;99.90;;;;;;5214049;28;20051;-35
2021/12/31 04:03:09;;;;;;;1.73;1.48;;;12.00;99.90;;;;;;5215150;28;20037;-34
2021/12/31 04:05:42;;;;;;;2.55;1.50;;;12.00;99.90;;;;;;5232632;28;20529;-34
2021/12/31 04:08:14;;;;;;;4.82;1.38;;;12.00;99.90;;;;;;5215718;28;20060;-34
2021/12/31 04:10:46;;;;;;;2.92;1.42;;;12.00;99.90;;;;;;5215096;28;20052;-34
2021/12/31 04:13:19;;;;;;;1.30;1.20;;;12.00;99.90;;;;;;5229693;28;20040;-34
2021/12/31 04:15:51;;;;;;;2.40;1.50;;;11.90;99.90;;;;;;5211188;28;20336;-34
2021/12/31 04:18:26;;;;;;;1.98;1.52;;;11.90;99.90;;;;;;5209588;28;20045;-34
2021/12/31 04:21:00;;;;;;;1.83;1.10;;;11.90;99.90;;;;;;5209629;28;20040;-34
2021/12/31 04:23:35;;;;;;;2.63;1.52;;;11.90;99.90;;;;;;5210093;28;20052;-34
2021/12/31 04:26:07;;;;;;;1.48;1.38;;;11.90;99.90;;;;;;5215706;28;20053;-34
2021/12/31 04:28:39;;;;;;;2.65;1.60;;;11.90;99.90;;;;;;5213951;28;20041;-34
2021/12/31 04:31:12;;;;;;;1.75;1.38;;;11.90;99.90;;;;;;5221070;28;20379;-34
2021/12/31 04:33:45;;;;;;;3.20;1.43;;;11.90;99.90;;;;;;5212836;28;20037;-34
2021/12/31 04:36:17;;;;;;;1.52;1.15;;;11.90;99.90;;;;;;5218056;28;20045;-34
2021/12/31 04:38:50;;;;;;;1.83;1.40;;;11.90;99.90;;;;;;5208016;28;20509;-34
2021/12/31 04:41:22;;;;;;;3.47;1.20;;;11.90;99.90;;;;;;5210975;28;20059;-34
2021/12/31 04:43:55;;;;;;;4.50;1.50;;;11.90;99.90;;;;;;5214572;28;20060;-34
2021/12/31 04:46:27;;;;;;;1.77;1.23;;;11.90;99.90;;;;;;5210571;28;20063;-34
2021/12/31 04:49:00;;;;;;;2.08;1.33;;;11.80;99.90;;;;;;5213948;28;20068;-34
2021/12/31 04:51:33;;;;;;;2.60;1.23;;;11.80;99.90;;;;;;5219030;28;20052;-34
2021/12/31 04:54:07;;;;;;;7.78;1.48;;;11.80;99.90;;;;;;5227546;28;20049;-34
2021/12/31 04:56:40;;;;;;;8.80;2.42;;;11.80;99.90;;;;;;5219446;28;20053;-34
2021/12/31 04:59:12;;;;;;;2.35;1.35;;;11.80;99.90;;;;;;5208427;28;20057;-34
2021/12/31 05:01:45;;;;;;;2.13;1.48;;;11.70;99.90;;;;;;5212242;28;20048;-34
2021/12/31 05:04:18;;;;;;;1.58;1.38;;;11.70;99.90;;;;;;5210451;28;20713;-34
2021/12/31 05:06:51;;;;;;;1.35;1.25;;;11.60;99.90;;;;;;5211130;28;20059;-34
2021/12/31 05:09:23;;;;;;;1.25;1.15;;;11.60;99.90;;;;;;5212191;28;20064;-34
2021/12/31 05:11:56;;;;;;;2.80;1.67;;;11.60;99.90;;;;;;5209409;28;20047;-34
2021/12/31 05:14:28;;;;;;;2.33;1.40;;;11.50;99.90;;;;;;5210772;28;20598;-34
2021/12/31 05:17:01;;;;;;;1.20;1.10;;;11.50;99.90;;;;;;5212116;28;20066;-34
2021/12/31 05:19:33;;;;;;;1.23;1.13;;;11.50;99.90;;;;;;5212096;28;20501;-34
2021/12/31 05:22:06;;;;;;;3.92;1.35;;;11.40;99.90;;;;;;5194711;28;20346;-34
2021/12/31 05:24:39;;;;;;;4.75;1.30;;;11.40;99.90;;;;;;5211565;28;20067;-34
2021/12/31 05:27:11;;;;;;;2.10;1.60;;;11.40;99.90;;;;;;5215233;28;20513;-34
2021/12/31 05:29:44;;;;;;;1.58;1.08;;;11.30;99.90;;;;;;5211474;28;20036;-34
2021/12/31 05:32:16;;;;;;;1.58;1.33;;;11.30;99.90;;;;;;5213468;28;20048;-34
2021/12/31 05:34:48;;;;;;;1.83;1.33;;;11.30;99.90;;;;;;5212764;28;20064;-34
2021/12/31 05:37:21;;;;;;;2.17;1.90;;;11.30;99.90;;;;;;5210166;28;20041;-34
2021/12/31 05:39:53;;;;;;;5.97;2.05;;;11.30;99.90;;;;;;5231845;28;20461;-34
2021/12/31 05:42:26;;;;;;;1.95;1.42;;;11.30;99.90;;;;;;5215238;28;20041;-34
2021/12/31 05:44:59;;;;;;;2.70;1.65;;;11.20;99.90;;;;;;5216240;28;20037;-35
2021/12/31 05:47:31;;;;;;;1.70;1.52;;;11.20;99.90;;;;;;5200240;28;20036;-34
2021/12/31 05:50:07;;;;;;;2.20;1.38;;;11.20;99.90;;;;;;5210280;28;20041;-34
2021/12/31 05:52:40;;;;;;;1.80;1.50;;;11.20;99.90;;;;;;5203429;28;20040;-34
2021/12/31 05:55:13;;;;;;;1.83;1.60;;;11.20;99.90;;;;;;5204025;28;20351;-34
2021/12/31 05:57:46;;;;;;;2.40;1.63;;;11.20;99.90;;;;;;5209706;28;20059;-34
2021/12/31 06:00:19;;;;;;;3.53;1.90;;;11.20;99.90;;;;;;5214278;28;20036;-34
2021/12/31 06:02:51;;;;;;;2.87;2.10;;;11.20;99.90;;;;;;5214556;28;20044;-34
2021/12/31 06:05:27;;;;;;;2.97;1.83;;;11.10;99.90;;;;;;5213758;28;21012;-34
2021/12/31 06:07:59;;;;;;;2.83;2.03;;;11.10;99.90;;;;;;5219555;28;20052;-34
2021/12/31 06:10:32;;;;;;;1.67;1.52;;;11.20;99.90;;;;;;5213997;28;20044;-34
2021/12/31 06:13:04;;;;;;;3.45;1.83;;;11.20;99.90;;;;;;5217045;28;20048;-34
2021/12/31 06:15:37;;;;;;;3.38;1.98;;;11.20;99.90;;;;;;5208616;28;20585;-34
2021/12/31 06:18:10;;;;;;;2.05;1.65;;;11.20;99.90;;;;;;5197556;28;20071;-34
2021/12/31 06:20:43;;;;;;;2.25;1.55;;;11.20;99.90;;;;;;5213549;28;20053;-34
2021/12/31 06:23:15;;;;;;;4.88;2.10;;;11.10;99.90;;;;;;5203061;28;20045;-34
2021/12/31 06:25:48;;;;;;;2.00;1.75;;;11.10;99.90;;;;;;5211743;28;20067;-34
2021/12/31 06:28:20;;;;;;;2.25;1.77;;;11.10;99.90;;;;;;5203599;28;20631;-34
2021/12/31 06:30:53;;;;;;;3.28;2.05;;;11.10;99.90;;;;;;5199727;28;20505;-34
2021/12/31 06:33:25;;;;;;;3.38;1.95;;;11.10;99.90;;;;;;5185997;28;20052;-34
2021/12/31 06:35:58;;;;;;;4.72;2.10;;;11.10;99.90;;;;;;5211783;28;21374;-34
2021/12/31 06:38:31;;;;;;;3.88;2.10;;;11.10;99.90;;;;;;5195358;28;20099;-34
2021/12/31 06:41:03;;;;;;;2.10;1.67;;;11.10;99.90;;;;;;5197721;28;20067;-34
2021/12/31 06:43:36;;;;;;;3.05;1.80;;;11.00;99.90;;;;;;5199834;28;20403;-34
2021/12/31 06:46:08;;;;;;;1.80;1.30;;;11.00;99.90;;;;;;5192964;28;20078;-34
2021/12/31 06:48:41;;;;;;;2.10;1.52;;;11.00;99.90;;;;;;5204527;28;20367;-34
2021/12/31 06:51:13;;;;;;;1.80;1.20;;;11.00;99.90;;;;;;5195758;28;20040;-34
2021/12/31 06:53:46;;;;;;;2.03;1.43;;;11.00;99.90;;;;;;5197731;28;20048;-34
2021/12/31 06:56:18;;;;;;;4.10;1.63;;;10.90;99.90;;;;;;5218534;28;20506;-34
2021/12/31 06:58:51;;;;;;;2.65;1.50;;;10.90;99.90;;;;;;5200207;28;20481;-34
2021/12/31 07:01:24;;;;;;;2.17;1.40;;;10.90;99.90;;;;;;5200510;28;20059;-34
2021/12/31 07:03:57;;;;;;;3.95;1.27;;;10.90;99.90;;;;;;5217069;28;20408;-34
2021/12/31 07:06:30;;;;;;;2.53;1.58;;;10.80;99.90;;;;;;5205091;28;20479;-34
2021/12/31 07:09:02;;;;;;;2.15;1.35;;;10.70;99.90;;;;;;5192344;28;20499;-34
2021/12/31 07:11:35;;;;;;;2.20;1.40;;;10.70;99.90;;;;;;5200867;28;20526;-34
2021/12/31 07:14:09;;;;;;;1.88;1.42;;;10.70;99.90;;;;;;5205205;28;20052;-35
2021/12/31 07:16:41;;;;;;;2.80;1.55;;;10.70;99.90;;;;;;5191688;28;20037;-34
2021/12/31 07:19:14;;;;;;;1.60;1.25;;;10.60;99.90;;;;;;5198394;28;20083;-34
2021/12/31 07:21:46;;;;;;;2.20;1.48;;;10.60;99.90;;;;;;5199725;28;21223;-34
2021/12/31 07:24:19;;;;;;;2.47;1.90;;;10.60;99.90;;;;;;5200077;28;20048;-35
2021/12/31 07:26:51;;;;;;;1.95;1.35;;;10.50;99.90;;;;;;5205668;28;20322;-34
2021/12/31 07:29:24;;;;;;;1.75;1.35;;;10.50;99.90;;;;;;5216496;28;20045;-34
2021/12/31 07:31:56;;;;;;;3.13;1.63;;;10.50;99.90;;;;;;5205171;28;20063;-34
2021/12/31 07:34:29;;;;;;;2.65;1.65;;;10.40;99.90;;;;;;5190527;28;20599;-34
2021/12/31 07:37:01;;;;;;;3.15;1.90;;;10.40;99.90;;;;;;5189461;28;20048;-34
2021/12/31 07:39:35;;;;;;;3.10;2.15;;;10.40;99.90;;;;;;5192675;28;20434;-35
2021/12/31 07:42:08;;;;;;;4.85;2.03;;;10.30;99.90;;;;;;5195300;28;20076;-34
2021/12/31 07:44:40;;;;;;;4.85;2.22;;;10.30;99.90;;;;;;5189398;28;20064;-34
2021/12/31 07:47:13;;;;;;;2.42;1.40;;;10.20;99.90;;;;;;5195718;28;20548;-34
2021/12/31 07:49:45;;;;;;;2.10;1.75;;;10.20;99.90;;;;;;5205572;28;20056;-34
2021/12/31 07:52:18;;;;;;;2.08;1.27;;;10.20;99.90;;;;;;5206206;28;20049;-34
2021/12/31 07:54:50;;;;;;;1.75;1.50;;;10.20;99.90;;;;;;5202464;28;20056;-34
2021/12/31 07:57:23;;;;;;;2.67;1.67;;;10.10;99.90;;;;;;5197606;28;20044;-34
2021/12/31 07:59:55;;;;;;;1.73;1.30;;;10.10;99.90;;;;;;5190372;28;20270;-34
2021/12/31 08:02:28;;;;;;;2.40;1.50;;;10.10;99.90;;;;;;5192851;28;20049;-34
2021/12/31 08:05:00;;;;;;;1.52;1.35;;;10.10;99.90;;;;;;5197558;28;21569;-34
2021/12/31 08:07:33;;;;;;;3.60;1.65;;;10.10;99.90;;;;;;5192396;28;20056;-34
2021/12/31 08:10:06;;;;;;;1.80;1.17;;;10.10;99.90;;;;;;5200516;28;20056;-34
2021/12/31 08:13:00;;;;;;;5.15;1.40;;;10.10;99.90;;;;;;5202364;28;20050;-34
2021/12/31 08:15:33;;;;;;;2.78;1.48;;;10.00;99.90;;;;;;5211633;28;20045;-34
2021/12/31 08:18:05;;;;;;;2.05;1.52;;;10.00;99.90;;;;;;5182716;28;20040;-34
2021/12/31 08:20:37;;;;;;;3.50;1.83;;;10.10;99.90;;;;;;5189677;28;20061;-36
2021/12/31 08:23:12;;;;;;;1.88;1.40;;;10.00;99.90;;;;;;5190297;28;20052;-36
2021/12/31 08:25:45;;;;;;;2.80;1.63;;;10.00;99.90;;;;;;5198004;28;20126;-36
2021/12/31 08:28:17;;;;;;;2.83;1.90;;;10.10;99.90;;;;;;5202979;28;20599;-36
2021/12/31 08:30:50;;;;;;;6.20;1.67;;;10.10;99.90;;;;;;5211665;28;20056;-36
2021/12/31 08:33:22;;;;;;;2.28;1.70;;;10.10;99.90;;;;;;5193121;28;20040;-35
2021/12/31 08:35:55;;;;;;;7.13;2.58;;;10.10;99.90;;;;;;5214147;28;20064;-36
2021/12/31 08:38:28;;;;;;;5.82;3.92;;;10.10;99.90;;;;;;5201271;28;20036;-36
2021/12/31 08:41:01;;;;;;;3.72;2.40;;;10.20;99.90;;;;;;5207287;28;20049;-36
2021/12/31 08:43:34;;;;;;;5.25;3.35;;;10.20;99.90;;;;;;5198976;28;20055;-36
2021/12/31 08:46:06;;;;;;;10.13;3.67;;;10.30;99.90;;;;;;5192662;28;20517;-36
2021/12/31 08:48:39;;;;;;;5.70;3.47;;;10.40;99.90;;;;;;5189051;28;20057;-36
2021/12/31 08:51:11;;;;;;;7.22;3.40;;;10.40;99.90;;;;;;5195269;28;20041;-36
2021/12/31 08:53:44;;;;;;;4.53;3.42;;;10.50;99.90;;;;;;5182172;28;20048;-36
2021/12/31 08:56:16;;;;;;;2.10;1.55;;;10.60;99.90;;;;;;5174631;28;20398;-36
2021/12/31 08:58:49;;;;;;;2.75;1.48;;;10.70;99.90;;;;;;5202125;28;20047;-36
2021/12/31 09:01:21;;;;;;;3.75;1.58;;;10.80;99.90;;;;;;5185225;28;20165;-36
2021/12/31 09:03:54;;;;;;;1.60;1.27;;;10.80;99.90;;;;;;5190659;28;20045;-36
2021/12/31 09:06:27;;;;;;;1.73;1.50;;;11.00;99.90;;;;;;5179158;28;20049;-36
2021/12/31 09:08:59;;;;;;;2.15;1.50;;;11.10;99.90;;;;;;5183732;28;20502;-36
2021/12/31 09:11:32;;;;;;;2.35;1.80;;;11.20;99.90;;;;;;5182451;28;20486;-36
2021/12/31 09:14:05;;;;;;;1.98;1.33;;;11.20;99.90;;;;;;5197187;28;20046;-36
2021/12/31 09:16:38;;;;;;;2.47;1.35;;;11.30;99.90;;;;;;5188905;28;20361;-36
2021/12/31 09:19:10;;;;;;;2.97;1.47;;;11.40;99.90;;;;;;5182029;28;20387;-36
2021/12/31 09:21:43;;;;;;;2.42;1.45;;;11.40;99.90;;;;;;5190942;28;20044;-36
2021/12/31 09:24:15;;;;;;;2.65;1.30;;;11.50;99.90;;;;;;5193125;28;20783;-36
2021/12/31 09:26:48;;;;;;;3.30;1.75;;;11.60;99.90;;;;;;5181095;28;20194;-36
2021/12/31 09:29:23;;;;;;;1.20;1.10;;;11.60;99.90;;;;;;5198580;28;20469;-36
2021/12/31 09:31:56;;;;;;;2.75;1.20;;;11.70;99.90;;;;;;5195394;28;20469;-36
2021/12/31 09:34:28;;;;;;;2.55;1.35;;;11.70;99.90;;;;;;5176714;28;20411;-37
2021/12/31 09:37:01;;;;;;;5.13;1.30;;;11.80;99.90;;;;;;5192828;28;20537;-37
2021/12/31 09:39:33;;;;;;;1.88;1.33;;;11.80;99.90;;;;;;5187064;28;21513;-36
2021/12/31 09:42:07;;;;;;;3.35;1.67;;;11.90;99.90;;;;;;5213198;28;20067;-36
2021/12/31 09:44:40;;;;;;;1.52;1.20;;;11.90;99.90;;;;;;5218267;28;20051;-37
2021/12/31 09:47:14;;;;;;;2.25;1.80;;;12.00;99.90;;;;;;5196959;28;20397;-37
2021/12/31 09:49:48;;;;;;;2.70;1.50;;;12.00;99.90;;;;;;5178687;28;20048;-36
2021/12/31 09:52:27;;;;;;;2.53;1.23;;;12.10;99.90;;;;;;5180217;28;20057;-36
2021/12/31 09:54:59;;;;;;;2.55;1.33;;;12.20;99.90;;;;;;5178554;28;20063;-37
2021/12/31 09:57:32;;;;;;;3.67;1.40;;;12.20;99.90;;;;;;5179634;28;20493;-36
2021/12/31 10:00:06;;;;;;;2.00;1.40;;;12.20;99.90;;;;;;5201793;28;20044;-37
2021/12/31 10:02:40;;;;;;;6.00;1.87;;;12.30;99.90;;;;;;5220656;28;20053;-37
2021/12/31 10:05:13;;;;;;;2.60;1.80;;;12.40;99.90;;;;;;5224498;28;20522;-37
2021/12/31 10:07:47;;;;;;;2.35;1.80;;;12.40;99.90;;;;;;5222680;28;20056;-36
2021/12/31 10:10:22;;;;;;;2.35;1.40;;;12.40;99.90;;;;;;5223598;28;20635;-36
2021/12/31 10:12:59;;;;;;;1.88;1.48;;;12.50;99.90;;;;;;5221817;28;20048;-36
2021/12/31 10:15:40;;;;;;;2.70;1.40;;;12.60;99.90;;;;;;5220881;28;20051;-36
2021/12/31 10:18:13;;;;;;;3.83;1.52;;;12.70;99.90;;;;;;5225393;28;20199;-36
2021/12/31 10:20:50;;;;;;;1.27;1.05;;;12.70;99.90;;;;;;5227145;28;20049;-37
2021/12/31 10:23:22;;;;;;;1.63;1.30;;;12.80;99.90;;;;;;5216546;28;20048;-38
2021/12/31 10:26:06;;;;;;;3.08;1.30;;;12.80;99.90;;;;;;5224185;28;20048;-37
2021/12/31 10:28:58;;;;;;;2.42;1.33;;;12.80;99.90;;;;;;5223083;28;20045;-36
2021/12/31 10:31:45;;;;;;;1.77;1.10;;;12.80;99.90;;;;;;5225241;28;20413;-36
2021/12/31 10:34:24;;;;;;;1.55;1.42;;;12.90;99.90;;;;;;5226423;28;20056;-36
2021/12/31 10:37:19;;;;;;;2.08;1.50;;;12.90;99.90;;;;;;5226923;28;20044;-36
2021/12/31 10:40:01;;;;;;;4.23;2.20;;;13.00;99.90;;;;;;5225586;28;20056;-36
2021/12/31 10:42:34;;;;;;;1.92;1.35;;;13.00;99.90;;;;;;5224669;28;20060;-36
2021/12/31 10:45:07;;;;;;;2.53;1.15;;;13.00;99.90;;;;;;5237845;28;20056;-36
2021/12/31 10:47:47;;;;;;;4.22;1.30;;;13.20;99.90;;;;;;5226936;28;20421;-36
2021/12/31 10:50:20;;;;;;;2.40;1.23;;;13.10;99.90;;;;;;5225297;28;20041;-36
2021/12/31 10:52:58;;;;;;;1.95;1.20;;;13.20;99.90;;;;;;5224813;28;20052;-36
2021/12/31 10:55:33;;;;;;;1.58;1.33;;;13.20;99.90;;;;;;5227166;28;20044;-41
2021/12/31 10:58:21;;;;;;;2.35;1.10;;;13.20;99.90;;;;;;5240213;28;20048;-36
2021/12/31 11:00:54;;;;;;;1.85;1.05;;;13.20;99.90;;;;;;5222195;28;20049;-36
2021/12/31 11:03:27;;;;;;;1.70;1.30;;;13.30;99.90;;;;;;5223209;28;20048;-36
2021/12/31 11:06:01;;;;;;;2.75;1.70;;;13.30;99.90;;;;;;5225126;28;20053;-37
2021/12/31 11:08:34;;;;;;;;;;;13.20;99.90;;;;;;5225159;28;20055;-36
2021/12/31 11:11:08;;;;;;;2.70;1.20;;;13.30;99.90;;;;;;5225492;28;20378;-36
2021/12/31 11:13:40;;;;;;;;;;;13.30;99.90;;;;;;5226447;28;20044;-36
2021/12/31 11:16:14;;;;;;;2.10;1.30;;;13.30;99.90;;;;;;5222852;28;20708;-36
2021/12/31 11:18:47;;;;;;;0.95;0.88;;;13.30;99.90;;;;;;5224614;28;20045;-36
2021/12/31 11:21:19;;;;;;;1.75;1.40;;;13.30;99.90;;;;;;5213363;28;20045;-36
2021/12/31 11:23:51;;;;;;;1.58;1.13;;;13.30;99.90;;;;;;5224057;28;20426;-37
2021/12/31 11:26:28;;;;;;;1.35;1.25;;;13.30;99.90;;;;;;5220760;28;20048;-36
2021/12/31 11:29:15;;;;;;;1.90;0.90;;;13.40;99.90;;;;;;5236300;28;20478;-36
2021/12/31 11:31:48;;;;;;;0.80;0.73;;;13.40;99.90;;;;;;5233665;28;20045;-36
2021/12/31 11:34:27;;;;;;;1.45;0.90;;;13.50;99.90;;;;;;5218235;28;20504;-36
2021/12/31 11:37:02;;;;;;;1.35;1.13;;;13.50;99.90;;;;;;5224694;28;20393;-36
2021/12/31 11:39:36;;;;;;;1.85;0.88;;;13.50;99.90;;;;;;5222706;28;20055;-36
2021/12/31 11:42:09;;;;;;;1.40;1.00;;;13.60;99.90;;;;;;5226115;28;20051;-36
2021/12/31 11:45:06;;;;;;;0.80;0.80;;;13.70;99.90;;;;;;5223441;28;20053;-36
2021/12/31 11:47:39;;;;;;;1.70;0.90;;;13.70;99.90;;;;;;5227951;28;20806;-36
2021/12/31 11:50:29;;;;;;;1.13;0.98;;;13.70;99.90;;;;;;5222667;28;20394;-36
2021/12/31 11:53:03;;;;;;;1.27;0.90;;;13.70;99.90;;;;;;5220978;28;20051;-36
2021/12/31 11:55:43;;;;;;;0.80;0.80;;;13.80;99.90;;;;;;5221929;28;20041;-36
2021/12/31 11:58:40;;;;;;;0.77;0.77;;;13.80;99.90;;;;;;5219681;28;20056;-37
2021/12/31 12:01:51;;;;;;;1.00;0.80;;;13.80;99.90;;;;;;5214509;28;20076;-36
2021/12/31 12:04:38;;;;;;;0.70;0.60;;;13.80;99.90;;;;;;5158786;28;20054;-37
2021/12/31 12:07:30;;;;;;;1.13;0.90;;;13.90;99.90;;;;;;5213476;28;20060;-36
2021/12/31 12:10:02;;;;;;;0.90;0.90;;;13.90;99.90;;;;;;5224268;28;20055;-36
2021/12/31 12:12:37;;;;;;;2.20;0.82;;;13.90;99.90;;;;;;5222869;28;20075;-37
2021/12/31 12:15:15;;;;;;;1.00;0.70;;;13.90;99.90;;;;;;5223454;28;20037;-36
2021/12/31 12:17:48;;;;;;;1.45;1.05;;;13.90;99.20;;;;;;5220774;28;20370;-36
2021/12/31 12:20:22;;;;;;;0.60;0.60;;;13.90;99.90;;;;;;5221823;28;20037;-36
2021/12/31 12:22:55;;;;;;;0.75;0.60;;;13.90;99.00;;;;;;5220662;28;20391;-37
2021/12/31 12:25:33;;;;;;;0.55;0.52;;;13.90;98.90;;;;;;5223975;28;20098;-36
2021/12/31 12:28:09;;;;;;;0.75;0.75;;;13.90;97.50;;;;;;5224691;28;20048;-36
2021/12/31 12:30:48;;;;;;;2.03;0.95;;;13.90;97.90;;;;;;5218833;28;20045;-37
2021/12/31 12:33:23;;;;;;;0.60;0.60;;;13.90;97.80;;;;;;5221101;28;20056;-36
2021/12/31 12:35:55;;;;;;;0.70;0.70;;;13.90;97.80;;;;;;5222153;28;20033;-36
2021/12/31 12:38:33;;;;;;;0.70;0.70;;;13.90;97.30;;;;;;5222995;28;20184;-36
2021/12/31 12:41:09;;;;;;;0.93;0.80;;;13.90;96.70;;;;;;5225610;28;20045;-36
2021/12/31 12:43:46;;;;;;;1.55;1.00;;;14.00;96.80;;;;;;5221001;28;20053;-36
2021/12/31 12:46:21;;;;;;;0.90;0.90;;;14.00;96.50;;;;;;5227661;28;20517;-37
2021/12/31 12:48:57;;;;;;;1.45;0.85;;;14.00;96.10;;;;;;5226572;28;20048;-38
2021/12/31 12:51:31;;;;;;;1.00;0.90;;;14.00;95.70;;;;;;5223440;28;20051;-37
2021/12/31 12:54:05;;;;;;;1.25;0.70;;;13.90;95.40;;;;;;5229135;28;20581;-36
2021/12/31 12:56:37;;;;;;;0.88;0.80;;;13.90;95.00;;;;;;5227475;28;20490;-36
2021/12/31 12:59:22;;;;;;;1.35;1.00;;;13.90;94.70;;;;;;5231065;28;20482;-36
2021/12/31 13:01:57;;;;;;;1.00;0.65;;;13.90;94.70;;;;;;5223271;28;20041;-37
2021/12/31 13:04:29;;;;;;;1.63;0.70;;;13.90;94.30;;;;;;5225798;28;20041;-36
2021/12/31 13:07:07;;;;;;;0.95;0.75;;;13.90;94.00;;;;;;5222526;28;20072;-36
2021/12/31 13:09:39;;;;;;;1.10;1.00;;;13.90;93.40;;;;;;5225088;28;20068;-36
2021/12/31 13:12:15;;;;;;;0.95;0.80;;;14.00;93.30;;;;;;5226000;28;20041;-36
2021/12/31 13:14:48;;;;;;;1.08;0.90;;;14.10;92.50;;;;;;5227015;28;20056;-37
2021/12/31 13:17:25;;;;;;;1.65;1.00;;;14.10;92.60;;;;;;5226529;28;20036;-37
2021/12/31 13:20:13;;;;;;;2.13;1.10;;;14.00;92.30;;;;;;5228741;28;20044;-37
2021/12/31 13:22:45;;;;;;;0.90;0.50;;;14.00;92.10;;;;;;5227051;28;20053;-37
2021/12/31 13:25:18;;;;;;;0.82;0.77;;;14.00;92.70;;;;;;5229002;28;20059;-36
2021/12/31 13:27:50;;;;;;;1.65;1.33;;;14.00;92.50;;;;;;5225079;28;20053;-37
2021/12/31 13:30:24;;;;;;;1.65;1.33;;;14.00;92.50;;;;;;5237705;28;20044;-36